VA319 / VH-YFX 7700 Squawk Report (19th of October, 2017)

Aircraft B738 Reg No. VH-YFX Age 7 months old
Model 737 Jet engines 2 First flight 07-04-17
Registered 18-04-17 Rollout N/A Delivered 18-04-17
Construction No. 41013 Line No. 6330 Series 800
ADSHEX 7C7A4B Airline name Virgin Australia Owner N/A
Airfield based Brisbane-International~Qld~VH First tracked 2017-04-05 11:18:16

Flight history for VH-YFX

Time Lat Lon Altitude Heading Speed Vertical Rate
2017-10-19 22:44:10 GMT -37.67143 144.83968 0 143 23 0
2017-10-19 22:43:57 GMT -37.67013 144.83846 0 151 29 0
2017-10-19 22:43:42 GMT -37.66774 144.83762 0 171 68 0
2017-10-19 22:43:35 GMT -37.66530 144.83714 -25 171 97 -192
2017-10-19 22:43:26 GMT -37.66043 144.83623 0 171 138 -192
2017-10-19 22:43:15 GMT -37.65308 144.83487 100 171 146 -704
2017-10-19 22:43:12 GMT -37.65108 144.83450 150 171 147 -896
2017-10-19 22:43:07 GMT -37.64795 144.83392 200 172 147 -640
2017-10-19 22:43:02 GMT -37.64456 144.83336 275 172 146 -768
2017-10-19 22:43:00 GMT -37.64288 144.83305 300 171 147 -896
2017-10-19 22:42:52 GMT -37.63744 144.83205 425 170 145 -832
2017-10-19 22:42:50 GMT -37.63618 144.83177 450 171 144 -640
2017-10-19 22:42:41 GMT -37.63014 144.83060 550 171 143 -768
2017-10-19 22:42:38 GMT -37.62822 144.83031 600 172 142 -768
2017-10-19 22:42:28 GMT -37.62180 144.82918 725 170 143 -768
2017-10-19 22:42:25 GMT -37.62045 144.82887 750 170 143 -768
2017-10-19 22:42:17 GMT -37.61449 144.82764 850 171 142 -896
2017-10-19 22:42:15 GMT -37.61357 144.82750 875 171 143 -896
2017-10-19 22:42:07 GMT -37.60858 144.82657 975 171 146 -960
2017-10-19 22:42:05 GMT -37.60671 144.82626 1,025 171 146 -768
2017-10-19 22:42:02 GMT -37.60550 144.82608 1,050 171 146 -768
2017-10-19 22:41:57 GMT -37.60121 144.82523 1,125 171 143 -832
2017-10-19 22:41:57 GMT -37.60121 144.82523 1,125 171 143 -832
2017-10-19 22:41:54 GMT -37.59954 144.82487 1,175 171 141 -832
2017-10-19 22:41:52 GMT -37.59773 144.82452 1,200 171 140 -768
2017-10-19 22:41:50 GMT -37.59737 144.82446 1,200 171 140 -768
2017-10-19 22:41:46 GMT -37.59424 144.82387 1,275 172 140 -832
2017-10-19 22:41:45 GMT -37.59389 144.82382 1,275 172 140 -768
2017-10-19 22:41:41 GMT -37.59130 144.82339 1,325 171 142 -896
2017-10-19 22:41:35 GMT -37.58693 144.82260 1,425 171 144 -704
2017-10-19 22:41:32 GMT -37.58427 144.82213 1,475 171 143 -832
2017-10-19 22:41:30 GMT -37.58400 144.82207 1,475 171 143 -832
2017-10-19 22:41:24 GMT -37.57993 144.82130 1,550 171 143 -768
2017-10-19 22:41:19 GMT -37.57650 144.82063 1,625 171 143 -768
2017-10-19 22:41:19 GMT -37.57681 144.82072 1,600 171 143 -832
2017-10-19 22:41:12 GMT -37.57251 144.81992 1,700 172 142 -832
2017-10-19 22:41:10 GMT -37.57026 144.81956 1,750 172 142 -832
2017-10-19 22:41:08 GMT -37.56915 144.81940 1,775 172 142 -896
2017-10-19 22:41:02 GMT -37.56564 144.81874 1,825 170 144 -640
2017-10-19 22:40:59 GMT -37.56345 144.81827 1,875 170 145 -896
2017-10-19 22:40:57 GMT -37.56207 144.81798 1,900 170 146 -768
2017-10-19 22:40:55 GMT -37.56105 144.81778 1,925 170 146 -768
2017-10-19 22:40:52 GMT -37.55891 144.81734 1,975 171 146 -832
2017-10-19 22:40:48 GMT -37.55630 144.81688 2,025 172 145 -832
2017-10-19 22:40:45 GMT -37.55388 144.81647 2,075 171 143 -768
2017-10-19 22:40:41 GMT -37.55118 144.81599 2,125 171 143 -512
2017-10-19 22:40:35 GMT -37.54742 144.81523 2,175 170 143 -704
2017-10-19 22:40:33 GMT -37.54642 144.81506 2,200 170 142 -832
2017-10-19 22:40:30 GMT -37.54427 144.81459 2,250 170 141 -768
2017-10-19 22:40:26 GMT -37.54037 144.81383 2,325 171 143 -832
2017-10-19 22:40:22 GMT -37.53879 144.81354 2,375 172 143 -896
2017-10-19 22:40:20 GMT -37.53749 144.81329 2,400 172 144 -960
2017-10-19 22:40:12 GMT -37.53251 144.81252 2,500 172 144 -896
2017-10-19 22:40:10 GMT -37.53111 144.81229 2,525 172 144 -768
2017-10-19 22:40:08 GMT -37.52967 144.81198 2,575 172 145 -704
2017-10-19 22:40:02 GMT -37.52539 144.81126 2,625 171 147 -384
2017-10-19 22:39:58 GMT -37.52255 144.81079 2,625 171 149 -128
2017-10-19 22:39:50 GMT -37.51729 144.80972 2,600 169 152 256
2017-10-19 22:39:46 GMT -37.51547 144.80933 2,600 169 152 128
2017-10-19 22:39:38 GMT -37.50970 144.80817 2,625 172 154 -832
2017-10-19 22:39:35 GMT -37.50700 144.80775 2,675 173 154 -512
2017-10-19 22:39:28 GMT -37.50216 144.80704 2,775 172 153 -576
2017-10-19 22:39:25 GMT -37.50032 144.80670 2,800 172 152 -320
2017-10-19 22:39:23 GMT -37.49886 144.80647 2,800 171 152 -576
2017-10-19 22:39:17 GMT -37.49391 144.80547 2,850 169 154 -384
2017-10-19 22:39:15 GMT -37.49285 144.80524 2,875 169 154 -384
2017-10-19 22:39:15 GMT -37.49285 144.80524 2,875 169 154 -384
2017-10-19 22:39:12 GMT -37.49080 144.80476 2,900 168 155 -448
2017-10-19 22:39:06 GMT -37.48628 144.80370 2,950 169 155 -576
2017-10-19 22:39:04 GMT -37.48530 144.80345 2,950 169 155 -640
2017-10-19 22:39:00 GMT -37.48242 144.80273 3,000 167 155 -640
2017-10-19 22:38:52 GMT -37.47578 144.80045 3,100 158 157 -704
2017-10-19 22:38:49 GMT -37.47474 144.79997 3,125 157 157 -704
2017-10-19 22:38:42 GMT -37.47038 144.79758 3,200 150 159 -384
2017-10-19 22:38:38 GMT -37.46729 144.79527 3,225 137 163 -512
2017-10-19 22:38:32 GMT -37.46398 144.79140 3,275 134 165 -640
2017-10-19 22:38:29 GMT -37.46240 144.78941 3,300 135 165 -640
2017-10-19 22:38:26 GMT -37.46077 144.78735 3,350 135 166 -704
2017-10-19 22:38:21 GMT -37.45784 144.78380 3,400 136 168 -576
2017-10-19 22:38:18 GMT -37.45523 144.78070 3,450 136 169 -704
2017-10-19 22:38:14 GMT -37.45413 144.77940 3,475 137 170 -640
2017-10-19 22:38:09 GMT -37.45207 144.77695 3,525 137 173 -832
2017-10-19 22:38:03 GMT -37.44777 144.77193 3,600 137 179 -512
2017-10-19 22:38:01 GMT -37.44658 144.77058 3,625 137 182 -448
2017-10-19 22:37:59 GMT -37.44504 144.76875 3,625 137 186 -384
2017-10-19 22:37:50 GMT -37.43843 144.76118 3,725 137 196 -896
2017-10-19 22:37:48 GMT -37.43774 144.76042 3,750 137 198 -896
2017-10-19 22:37:40 GMT -37.43234 144.75427 3,925 137 201 -1856
2017-10-19 22:37:37 GMT -37.42986 144.75143 4,050 137 201 -1984
2017-10-19 22:37:27 GMT -37.42401 144.74471 4,350 136 203 -1856
2017-10-19 22:37:25 GMT -37.42191 144.74223 4,450 136 203 -1600
2017-10-19 22:37:16 GMT -37.41655 144.73582 4,575 134 207 -576
2017-10-19 22:37:14 GMT -37.41490 144.73364 4,600 130 209 -256
2017-10-19 22:37:05 GMT -37.40932 144.72437 4,625 112 214 -256
2017-10-19 22:37:03 GMT -37.40854 144.72224 4,625 108 216 -64
2017-10-19 22:36:54 GMT -37.40640 144.71091 4,625 89 228 0
2017-10-19 22:36:52 GMT -37.40639 144.70882 4,625 87 229 -64
2017-10-19 22:36:42 GMT -37.40831 144.69485 4,625 68 241 64
2017-10-19 22:36:40 GMT -37.40900 144.69244 4,625 67 242 0
2017-10-19 22:36:33 GMT -37.41184 144.68420 4,650 66 240 -128
2017-10-19 22:36:29 GMT -37.41445 144.67664 4,650 65 239 320
2017-10-19 22:36:23 GMT -37.41664 144.67055 4,625 65 240 -64
2017-10-19 22:36:18 GMT -37.41866 144.66512 4,625 65 240 0
2017-10-19 22:36:16 GMT -37.42067 144.65967 4,625 65 240 64
2017-10-19 22:36:14 GMT -37.42067 144.65967 4,625 65 240 64
2017-10-19 22:36:12 GMT -37.42167 144.65686 4,625 65 239 64
2017-10-19 22:36:07 GMT -37.42395 144.65065 4,625 65 239 0
2017-10-19 22:36:03 GMT -37.42561 144.64610 4,625 65 239 -128
2017-10-19 22:36:01 GMT -37.42683 144.64284 4,625 65 239 64
2017-10-19 22:36:00 GMT -37.42665 144.64331 4,625 65 239 0
2017-10-19 22:35:57 GMT -37.42868 144.63763 4,625 66 238 0
2017-10-19 22:35:54 GMT -37.42987 144.63431 4,625 66 238 0
2017-10-19 22:35:50 GMT -37.43261 144.62665 4,625 65 238 -64
2017-10-19 22:35:46 GMT -37.43372 144.62361 4,625 65 238 0
2017-10-19 22:35:43 GMT -37.43507 144.61978 4,625 65 238 0
2017-10-19 22:35:40 GMT -37.43647 144.61601 4,625 65 240 128
2017-10-19 22:35:36 GMT -37.43816 144.61147 4,625 65 238 64
2017-10-19 22:35:32 GMT -37.44017 144.60591 4,625 65 239 -64
2017-10-19 22:35:29 GMT -37.44132 144.60287 4,625 65 239 -64
2017-10-19 22:35:28 GMT -37.44200 144.60100 4,625 65 240 0
2017-10-19 22:35:25 GMT -37.44333 144.59743 4,625 65 240 64
2017-10-19 22:35:22 GMT -37.44494 144.59303 4,625 65 239 64
2017-10-19 22:35:20 GMT -37.44548 144.59164 4,625 65 239 64
2017-10-19 22:35:18 GMT -37.44671 144.58838 4,625 65 237 0
2017-10-19 22:35:11 GMT -37.44965 144.58020 4,625 65 235 -64
2017-10-19 22:35:09 GMT -37.45065 144.57745 4,625 65 235 -192
2017-10-19 22:35:07 GMT -37.45175 144.57436 4,625 48 247 64
2017-10-19 22:35:07 GMT -37.45129 144.57558 4,625 65 235 -256
2017-10-19 22:35:00 GMT -37.45560 144.56360 4,625 64 238 -256
2017-10-19 22:34:56 GMT -37.45615 144.56219 4,625 63 241 64
2017-10-19 22:34:54 GMT -37.45802 144.55730 4,625 55 244 64
2017-10-19 22:34:50 GMT -37.45985 144.55296 4,625 57 243 -64
2017-10-19 22:34:46 GMT -37.46187 144.54906 4,625 52 244 -64
2017-10-19 22:34:43 GMT -37.46422 144.54521 4,625 48 247 64
2017-10-19 22:34:39 GMT -37.46729 144.54097 4,625 46 246 -64
2017-10-19 22:34:35 GMT -37.47097 144.53607 4,625 46 246 -64
2017-10-19 22:34:28 GMT -37.47576 144.52968 4,625 46 246 128
2017-10-19 22:34:25 GMT -37.47780 144.52696 4,625 46 246 64
2017-10-19 22:34:22 GMT -37.48065 144.52324 4,625 46 245 128
2017-10-19 22:34:17 GMT -37.48476 144.51773 4,625 47 244 0
2017-10-19 22:34:14 GMT -37.48707 144.51459 4,625 47 244 64
2017-10-19 22:34:12 GMT -37.48842 144.51266 4,625 46 244 0
2017-10-19 22:34:09 GMT -37.49066 144.50967 4,625 46 245 -64
2017-10-19 22:34:04 GMT -37.49529 144.50359 4,625 46 245 0
2017-10-19 22:34:03 GMT -37.49529 144.50359 4,625 46 245 0
2017-10-19 22:34:02 GMT -37.49569 144.50305 4,625 46 245 0
2017-10-19 22:34:00 GMT -37.49778 144.50024 4,625 46 245 -64
2017-10-19 22:33:57 GMT -37.49974 144.49768 4,625 46 245 -64
2017-10-19 22:33:54 GMT -37.50243 144.49417 4,625 46 245 64
2017-10-19 22:33:52 GMT -37.50397 144.49213 4,625 46 245 64
2017-10-19 22:33:52 GMT -37.50397 144.49213 4,625 46 245 64
2017-10-19 22:33:48 GMT -37.50704 144.48807 4,625 46 245 0
2017-10-19 22:33:42 GMT -37.51091 144.48305 4,625 46 245 0
2017-10-19 22:33:40 GMT -37.51300 144.48038 4,625 45 245 0
2017-10-19 22:33:37 GMT -37.51533 144.47726 4,625 45 244 0
2017-10-19 22:33:35 GMT -37.51707 144.47507 4,625 45 243 0
2017-10-19 22:33:32 GMT -37.51900 144.47267 4,625 42 244 64
2017-10-19 22:33:30 GMT -37.52166 144.46956 4,625 38 244 64
2017-10-19 22:33:26 GMT -37.52492 144.46626 4,625 32 246 -64
2017-10-19 22:33:24 GMT -37.52636 144.46513 4,625 28 246 -320
2017-10-19 22:33:20 GMT -37.53069 144.46227 4,650 22 244 256
2017-10-19 22:33:14 GMT -37.53699 144.45970 4,625 9 246 -256
2017-10-19 22:33:11 GMT -37.54308 144.45869 4,650 0 254 320
2017-10-19 22:33:09 GMT -37.54308 144.45869 4,650 0 254 320
2017-10-19 22:33:02 GMT -37.55141 144.45917 4,625 353 253 0
2017-10-19 22:32:58 GMT -37.55583 144.45988 4,625 352 252 -128
2017-10-19 22:32:58 GMT -37.55942 144.46054 4,650 352 251 -64
2017-10-19 22:32:56 GMT -37.55754 144.46022 4,650 352 252 -128
2017-10-19 22:32:51 GMT -37.56440 144.46144 4,625 352 250 384
2017-10-19 22:32:46 GMT -37.56863 144.46220 4,600 352 250 704
2017-10-19 22:32:40 GMT -37.57715 144.46378 4,500 352 251 768
2017-10-19 22:32:36 GMT -37.58120 144.46454 4,450 352 251 768
2017-10-19 22:32:29 GMT -37.59219 144.46658 4,325 352 251 768
2017-10-19 22:32:27 GMT -37.59334 144.46683 4,325 352 251 768
2017-10-19 22:32:25 GMT -37.59391 144.46693 4,300 352 251 768
2017-10-19 22:32:23 GMT -37.59680 144.46747 4,275 349 249 704
2017-10-19 22:32:17 GMT -37.60442 144.46912 4,200 348 248 704
2017-10-19 22:32:15 GMT -37.60556 144.46941 4,200 348 248 704
2017-10-19 22:32:11 GMT -37.61073 144.47098 4,125 342 243 768
2017-10-19 22:32:07 GMT -37.61513 144.47308 4,075 334 245 832
2017-10-19 22:32:05 GMT -37.61933 144.47583 4,025 324 241 832
2017-10-19 22:32:01 GMT -37.62103 144.47717 4,000 326 242 832
2017-10-19 22:31:54 GMT -37.62717 144.48366 3,900 312 235 896
2017-10-19 22:31:51 GMT -37.63069 144.48897 3,825 302 228 704
2017-10-19 22:31:43 GMT -37.63344 144.49464 3,775 294 221 768
2017-10-19 22:31:39 GMT -37.63467 144.49809 3,725 291 221 704
2017-10-19 22:31:37 GMT -37.63568 144.50212 3,700 281 218 832
2017-10-19 22:31:32 GMT -37.63660 144.50867 3,625 276 218 640
2017-10-19 22:31:30 GMT -37.63678 144.51106 3,600 274 217 704
2017-10-19 22:31:26 GMT -37.63701 144.51778 3,525 273 217 768
2017-10-19 22:31:21 GMT -37.63719 144.52304 3,475 273 217 768
2017-10-19 22:31:19 GMT -37.63725 144.52473 3,450 273 215 704
2017-10-19 22:31:11 GMT -37.63760 144.53543 3,350 274 216 704
2017-10-19 22:31:09 GMT -37.63770 144.53729 3,325 274 215 640
2017-10-19 22:31:07 GMT -37.63783 144.54047 3,300 274 215 640
2017-10-19 22:31:02 GMT -37.63811 144.54636 3,250 273 216 832
2017-10-19 22:31:00 GMT -37.63823 144.54884 3,225 273 217 896
2017-10-19 22:30:58 GMT -37.63829 144.55127 3,200 273 217 704
2017-10-19 22:30:49 GMT -37.63870 144.56271 3,125 273 215 320
2017-10-19 22:30:48 GMT -37.63883 144.56676 3,075 273 216 768
2017-10-19 22:30:45 GMT -37.63884 144.56740 3,075 273 215 704
2017-10-19 22:30:38 GMT -37.63911 144.57539 3,025 273 215 448
2017-10-19 22:30:35 GMT -37.63930 144.58031 3,000 273 215 384
2017-10-19 22:30:34 GMT -37.63935 144.58205 3,000 273 215 384
2017-10-19 22:30:28 GMT -37.63953 144.58884 2,950 272 216 448
2017-10-19 22:30:24 GMT -37.63971 144.59509 2,925 272 216 384
2017-10-19 22:30:22 GMT -37.63971 144.59637 2,900 272 216 512
2017-10-19 22:30:13 GMT -37.63998 144.60812 2,875 274 217 192
2017-10-19 22:30:11 GMT -37.64003 144.61076 2,850 274 217 192
2017-10-19 22:30:05 GMT -37.64035 144.61694 2,850 275 218 256
2017-10-19 22:30:03 GMT -37.64062 144.62169 2,825 276 219 0
2017-10-19 22:30:01 GMT -37.64074 144.62283 2,825 277 218 -64
2017-10-19 22:29:59 GMT -37.64088 144.62521 2,825 277 218 -128
2017-10-19 22:29:55 GMT -37.64135 144.63017 2,850 278 217 64
2017-10-19 22:29:50 GMT -37.64205 144.63698 2,825 283 219 -64
2017-10-19 22:29:48 GMT -37.64256 144.64008 2,850 287 220 64
2017-10-19 22:29:44 GMT -37.64328 144.64331 2,825 293 221 256
2017-10-19 22:29:40 GMT -37.64561 144.64980 2,775 303 227 960
2017-10-19 22:29:38 GMT -37.64614 144.65096 2,750 304 227 1024
2017-10-19 22:29:35 GMT -37.64824 144.65471 2,700 303 225 704
2017-10-19 22:29:33 GMT -37.64875 144.65561 2,700 299 223 512
2017-10-19 22:29:29 GMT -37.65178 144.66367 2,650 285 223 192
2017-10-19 22:29:27 GMT -37.65234 144.66615 2,650 281 221 0
2017-10-19 22:29:24 GMT -37.65285 144.66985 2,650 278 220 -192
2017-10-19 22:29:22 GMT -37.65285 144.66985 2,650 279 221 -128
2017-10-19 22:29:15 GMT -37.65373 144.67918 2,675 276 221 -256
2017-10-19 22:29:12 GMT -37.65396 144.68230 2,700 276 221 0
2017-10-19 22:29:10 GMT -37.65413 144.68433 2,700 276 220 -128
2017-10-19 22:29:04 GMT -37.65480 144.69263 2,650 275 220 896
2017-10-19 22:29:01 GMT -37.65509 144.69748 2,625 274 221 128
2017-10-19 22:28:59 GMT -37.65514 144.69801 2,625 274 221 -64
2017-10-19 22:28:53 GMT -37.65550 144.70702 2,650 273 217 -320
2017-10-19 22:28:51 GMT -37.65564 144.71004 2,650 273 215 -64
2017-10-19 22:28:50 GMT -37.65568 144.71104 2,650 273 214 384
2017-10-19 22:28:49 GMT -37.65568 144.71204 2,650 273 213 768
2017-10-19 22:28:42 GMT -37.65605 144.72073 2,500 273 213 1664
2017-10-19 22:28:40 GMT -37.65610 144.72321 2,450 273 212 1536
2017-10-19 22:28:37 GMT -37.65628 144.72682 2,375 273 212 1472
2017-10-19 22:28:31 GMT -37.65662 144.73520 2,225 274 208 768
2017-10-19 22:28:28 GMT -37.65676 144.73807 2,200 274 206 1024
2017-10-19 22:28:20 GMT -37.65732 144.74815 2,050 275 198 1152
2017-10-19 22:28:17 GMT -37.65745 144.75102 2,000 274 196 1216
2017-10-19 22:28:14 GMT -37.65769 144.75598 1,875 273 194 2048
2017-10-19 22:28:08 GMT -37.65787 144.76117 1,725 273 193 1728
2017-10-19 22:28:06 GMT -37.65787 144.76231 1,700 273 191 1344
2017-10-19 22:28:03 GMT -37.65806 144.76709 1,625 273 187 832
2017-10-19 22:28:01 GMT -37.65815 144.76984 1,600 273 182 576
2017-10-19 22:27:58 GMT -37.65825 144.77252 1,575 273 180 512
2017-10-19 22:27:56 GMT -37.65829 144.77396 1,575 273 179 768
2017-10-19 22:27:51 GMT -37.65848 144.77988 1,475 273 171 1344
2017-10-19 22:27:49 GMT -37.65852 144.78217 1,425 274 167 1856
2017-10-19 22:27:47 GMT -37.65857 144.78355 1,400 273 167 1344
2017-10-19 22:27:45 GMT -37.65857 144.78523 1,350 274 167 1792
2017-10-19 22:27:40 GMT -37.65884 144.79128 1,175 274 167 1792
2017-10-19 22:27:36 GMT -37.65903 144.79472 1,075 275 166 1920
2017-10-19 22:27:36 GMT -37.65903 144.79472 1,075 275 166 1856
2017-10-19 22:27:34 GMT -37.65908 144.79556 1,025 275 166 1856
2017-10-19 22:27:32 GMT -37.65922 144.79794 975 275 165 1536
2017-10-19 22:27:29 GMT -37.65939 144.80103 875 274 164 1344
2017-10-19 22:27:26 GMT -37.65964 144.80536 775 275 161 1344
2017-10-19 22:27:24 GMT -37.65964 144.80536 775 275 161 1344
2017-10-19 22:27:22 GMT -37.65978 144.80798 725 275 159 1600
2017-10-19 22:27:17 GMT -37.66008 144.81232 550 276 159 2304
2017-10-19 22:27:14 GMT -37.66031 144.81558 425 275 161 1984
2017-10-19 22:27:11 GMT -37.66049 144.81833 325 275 161 1792
2017-10-19 22:27:05 GMT -37.66081 144.82346 150 276 160 1536
2017-10-19 22:26:52 GMT -37.66150 144.83485 50 275 130 0
2017-10-19 22:26:42 GMT -37.66186 144.84164 50 274 86 0
2017-10-19 22:26:31 GMT -37.66215 144.84631 0 272 40 0
2017-10-19 22:26:19 GMT -37.66224 144.84760 0 275 0 0
2017-10-19 22:26:08 GMT -37.66224 144.84761 0 275 0 0
2017-10-19 22:25:57 GMT -37.66224 144.84761 0 275 0 0
2017-10-19 22:25:45 GMT -37.66223 144.84764 0 278 4 0
2017-10-19 22:25:34 GMT -37.66230 144.84792 0 348 6 0
2017-10-19 22:25:22 GMT -37.66265 144.84792 0 5 8 0
2017-10-19 22:25:10 GMT -37.66307 144.84787 0 2 7 0
2017-10-19 22:24:59 GMT -37.66331 144.84785 0 2 2 0
2017-10-19 22:24:47 GMT -37.66338 144.84785 0 2 3 0
2017-10-19 22:24:35 GMT -37.66352 144.84784 0 5 4 0
2017-10-19 22:24:23 GMT -37.66371 144.84782 0 5 5 0
2017-10-19 22:24:12 GMT -37.66395 144.84778 0 16 5 0
2017-10-19 22:24:01 GMT -37.66408 144.84775 0 22 0 0
2017-10-19 22:23:46 GMT -37.66420 144.84769 0 28 6 0
2017-10-19 22:23:38 GMT -37.66438 144.84756 0 39 7 0
2017-10-19 22:23:27 GMT -37.66472 144.84714 0 64 13 0
2017-10-19 22:23:15 GMT -37.66490 144.84619 0 81 17 0
2017-10-19 22:23:04 GMT -37.66502 144.84511 0 81 18 0
2017-10-19 22:22:52 GMT -37.66517 144.84390 0 81 18 0
2017-10-19 22:22:41 GMT -37.66530 144.84279 0 75 16 0
2017-10-19 22:22:28 GMT -37.66578 144.84184 0 28 13 0

Making use of Plane Finder data

You are free to use the raw flight data, aircraft information and images provided in this report for your own purposes provided the data is correctly attributed to Plane Finder. We ask that you please credit Plane Finder and link to planefinder.net in close proximity to the content.

Optionally one of the following logos (no smaller then 150x24px) can be used and must link to planefinder.net

Embedding the Plane Finder map

You are welcome to embed the Plane Finder playback map on your website to offer visitors a more interactive experience. We suggest using the following HTML code:

<iframe src="//planefinder.net/data/report/VA319-VH-YFX-7700-squawk-2017-10-19/map" width="800" height="600" seamless="seamless"></iframe>

Where our data comes from

Plane Finder has a global network of data feeds and antenna radars that receive data broadcast directly from aircraft. The primary technologies used are ADS-B and MLAT. We also show feeds from the FAA and a FLARM glider feed.

Click here to find out more about the Plane Finder network.

How we collect our data